sensor_id;sensor_type;location;lat;lon;timestamp;P1;durP1;ratioP1;P2;durP2;ratioP2
71116;SDS011;58775;46.992;9.518;2023-04-24T00:00:34;1.40;;;0.20;;
71116;SDS011;58775;46.992;9.518;2023-04-24T00:02:36;3.30;;;0.30;;
71116;SDS011;58775;46.992;9.518;2023-04-24T00:04:41;1.10;;;0.20;;
71116;SDS011;58775;46.992;9.518;2023-04-24T00:06:45;1.27;;;0.20;;
71116;SDS011;58775;46.992;9.518;2023-04-24T00:08:50;1.60;;;0.20;;
71116;SDS011;58775;46.992;9.518;2023-04-24T00:10:51;3.08;;;0.30;;
71116;SDS011;58775;46.992;9.518;2023-04-24T00:12:53;1.27;;;0.35;;
71116;SDS011;58775;46.992;9.518;2023-04-24T00:14:54;2.60;;;0.22;;
71116;SDS011;58775;46.992;9.518;2023-04-24T00:16:55;0.50;;;0.20;;
71116;SDS011;58775;46.992;9.518;2023-04-24T00:18:57;1.17;;;0.40;;
71116;SDS011;58775;46.992;9.518;2023-04-24T00:20:58;1.80;;;0.30;;
71116;SDS011;58775;46.992;9.518;2023-04-24T00:23:00;1.83;;;0.45;;
71116;SDS011;58775;46.992;9.518;2023-04-24T00:25:02;2.00;;;0.70;;
71116;SDS011;58775;46.992;9.518;2023-04-24T00:27:03;2.88;;;0.57;;
71116;SDS011;58775;46.992;9.518;2023-04-24T00:29:05;2.00;;;0.57;;
71116;SDS011;58775;46.992;9.518;2023-04-24T00:31:06;1.70;;;0.70;;
71116;SDS011;58775;46.992;9.518;2023-04-24T00:33:07;2.05;;;0.70;;
71116;SDS011;58775;46.992;9.518;2023-04-24T00:35:09;2.00;;;0.60;;
71116;SDS011;58775;46.992;9.518;2023-04-24T00:37:10;1.77;;;0.50;;
71116;SDS011;58775;46.992;9.518;2023-04-24T00:39:12;2.38;;;0.70;;
71116;SDS011;58775;46.992;9.518;2023-04-24T00:41:13;1.40;;;0.40;;
71116;SDS011;58775;46.992;9.518;2023-04-24T00:43:15;1.20;;;0.32;;
71116;SDS011;58775;46.992;9.518;2023-04-24T00:45:17;1.40;;;0.30;;
71116;SDS011;58775;46.992;9.518;2023-04-24T00:47:18;1.33;;;0.30;;
71116;SDS011;58775;46.992;9.518;2023-04-24T00:49:23;2.13;;;0.28;;
71116;SDS011;58775;46.992;9.518;2023-04-24T00:51:24;0.90;;;0.30;;
71116;SDS011;58775;46.992;9.518;2023-04-24T00:53:26;1.38;;;0.32;;
71116;SDS011;58775;46.992;9.518;2023-04-24T00:55:27;0.88;;;0.25;;
71116;SDS011;58775;46.992;9.518;2023-04-24T00:57:28;0.95;;;0.20;;
71116;SDS011;58775;46.992;9.518;2023-04-24T00:59:29;0.35;;;0.15;;
71116;SDS011;58775;46.992;9.518;2023-04-24T01:01:31;0.47;;;0.20;;
71116;SDS011;58775;46.992;9.518;2023-04-24T01:03:33;1.20;;;0.20;;
71116;SDS011;58775;46.992;9.518;2023-04-24T01:05:35;0.60;;;0.20;;
71116;SDS011;58775;46.992;9.518;2023-04-24T01:07:36;1.42;;;0.30;;
71116;SDS011;58775;46.992;9.518;2023-04-24T01:09:40;1.42;;;0.30;;
71116;SDS011;58775;46.992;9.518;2023-04-24T01:11:44;0.50;;;0.20;;
71116;SDS011;58775;46.992;9.518;2023-04-24T01:13:46;1.25;;;0.20;;
71116;SDS011;58775;46.992;9.518;2023-04-24T01:15:48;1.40;;;0.30;;
71116;SDS011;58775;46.992;9.518;2023-04-24T01:17:49;0.57;;;0.30;;
71116;SDS011;58775;46.992;9.518;2023-04-24T01:19:55;3.45;;;0.50;;
71116;SDS011;58775;46.992;9.518;2023-04-24T01:21:58;2.50;;;0.45;;
71116;SDS011;58775;46.992;9.518;2023-04-24T01:24:03;1.08;;;0.30;;
71116;SDS011;58775;46.992;9.518;2023-04-24T01:26:06;1.30;;;0.30;;
71116;SDS011;58775;46.992;9.518;2023-04-24T01:28:07;0.93;;;0.25;;
71116;SDS011;58775;46.992;9.518;2023-04-24T01:30:09;1.65;;;0.20;;
71116;SDS011;58775;46.992;9.518;2023-04-24T01:32:12;2.80;;;1.10;;
71116;SDS011;58775;46.992;9.518;2023-04-24T01:34:14;1.77;;;0.32;;
71116;SDS011;58775;46.992;9.518;2023-04-24T01:36:17;0.68;;;0.20;;
71116;SDS011;58775;46.992;9.518;2023-04-24T01:38:20;0.65;;;0.32;;
71116;SDS011;58775;46.992;9.518;2023-04-24T01:40:21;0.90;;;0.20;;
71116;SDS011;58775;46.992;9.518;2023-04-24T01:42:23;1.05;;;0.22;;
71116;SDS011;58775;46.992;9.518;2023-04-24T01:44:25;2.28;;;0.68;;
71116;SDS011;58775;46.992;9.518;2023-04-24T01:46:27;1.23;;;0.40;;
71116;SDS011;58775;46.992;9.518;2023-04-24T01:48:28;1.80;;;0.40;;
71116;SDS011;58775;46.992;9.518;2023-04-24T01:50:30;1.83;;;0.50;;
71116;SDS011;58775;46.992;9.518;2023-04-24T01:52:32;1.48;;;0.32;;
71116;SDS011;58775;46.992;9.518;2023-04-24T01:54:35;2.17;;;0.50;;
71116;SDS011;58775;46.992;9.518;2023-04-24T01:56:36;1.60;;;0.50;;
71116;SDS011;58775;46.992;9.518;2023-04-24T01:58:44;2.30;;;0.50;;
71116;SDS011;58775;46.992;9.518;2023-04-24T02:00:46;1.05;;;0.50;;
71116;SDS011;58775;46.992;9.518;2023-04-24T02:02:48;2.95;;;0.40;;
71116;SDS011;58775;46.992;9.518;2023-04-24T02:04:50;1.35;;;0.40;;
71116;SDS011;58775;46.992;9.518;2023-04-24T02:06:51;0.85;;;0.30;;
71116;SDS011;58775;46.992;9.518;2023-04-24T02:08:53;2.40;;;0.55;;
71116;SDS011;58775;46.992;9.518;2023-04-24T02:10:54;0.80;;;0.30;;
71116;SDS011;58775;46.992;9.518;2023-04-24T02:12:55;2.95;;;0.40;;
71116;SDS011;58775;46.992;9.518;2023-04-24T02:14:58;3.72;;;0.95;;
71116;SDS011;58775;46.992;9.518;2023-04-24T02:17:00;3.72;;;0.80;;
71116;SDS011;58775;46.992;9.518;2023-04-24T02:19:02;2.15;;;0.65;;
71116;SDS011;58775;46.992;9.518;2023-04-24T02:21:04;1.30;;;0.30;;
71116;SDS011;58775;46.992;9.518;2023-04-24T02:23:06;0.70;;;0.20;;
71116;SDS011;58775;46.992;9.518;2023-04-24T02:25:07;2.08;;;0.25;;
71116;SDS011;58775;46.992;9.518;2023-04-24T02:27:09;1.60;;;0.30;;
71116;SDS011;58775;46.992;9.518;2023-04-24T02:29:11;0.65;;;0.20;;
71116;SDS011;58775;46.992;9.518;2023-04-24T02:31:13;0.95;;;0.20;;
71116;SDS011;58775;46.992;9.518;2023-04-24T02:33:14;1.10;;;0.20;;
71116;SDS011;58775;46.992;9.518;2023-04-24T02:35:16;0.85;;;0.20;;
71116;SDS011;58775;46.992;9.518;2023-04-24T02:37:17;0.73;;;0.20;;
71116;SDS011;58775;46.992;9.518;2023-04-24T02:39:19;0.35;;;0.20;;
71116;SDS011;58775;46.992;9.518;2023-04-24T02:41:21;0.10;;;0.10;;
71116;SDS011;58775;46.992;9.518;2023-04-24T02:43:22;2.28;;;0.10;;
71116;SDS011;58775;46.992;9.518;2023-04-24T02:45:24;0.85;;;0.10;;
71116;SDS011;58775;46.992;9.518;2023-04-24T02:47:26;0.20;;;0.10;;
71116;SDS011;58775;46.992;9.518;2023-04-24T02:49:27;1.02;;;0.20;;
71116;SDS011;58775;46.992;9.518;2023-04-24T02:51:28;0.70;;;0.20;;
71116;SDS011;58775;46.992;9.518;2023-04-24T02:53:30;2.08;;;0.20;;
71116;SDS011;58775;46.992;9.518;2023-04-24T02:55:31;0.63;;;0.20;;
71116;SDS011;58775;46.992;9.518;2023-04-24T02:57:32;0.35;;;0.20;;
71116;SDS011;58775;46.992;9.518;2023-04-24T02:59:34;0.52;;;0.10;;
71116;SDS011;58775;46.992;9.518;2023-04-24T03:01:35;0.40;;;0.20;;
71116;SDS011;58775;46.992;9.518;2023-04-24T03:03:37;0.10;;;0.10;;
71116;SDS011;58775;46.992;9.518;2023-04-24T03:05:39;1.05;;;0.28;;
71116;SDS011;58775;46.992;9.518;2023-04-24T03:07:40;0.82;;;0.10;;
71116;SDS011;58775;46.992;9.518;2023-04-24T03:09:41;0.20;;;0.10;;
71116;SDS011;58775;46.992;9.518;2023-04-24T03:11:43;4.65;;;0.20;;
71116;SDS011;58775;46.992;9.518;2023-04-24T03:13:44;0.30;;;0.10;;
71116;SDS011;58775;46.992;9.518;2023-04-24T03:15:46;2.28;;;0.20;;
71116;SDS011;58775;46.992;9.518;2023-04-24T03:17:47;2.05;;;0.10;;
71116;SDS011;58775;46.992;9.518;2023-04-24T03:19:48;1.70;;;0.38;;
71116;SDS011;58775;46.992;9.518;2023-04-24T03:21:50;1.13;;;0.20;;
71116;SDS011;58775;46.992;9.518;2023-04-24T03:23:51;3.13;;;0.30;;
71116;SDS011;58775;46.992;9.518;2023-04-24T03:25:53;1.38;;;0.30;;
71116;SDS011;58775;46.992;9.518;2023-04-24T03:27:55;2.72;;;0.25;;
71116;SDS011;58775;46.992;9.518;2023-04-24T03:30:26;1.85;;;0.20;;
71116;SDS011;58775;46.992;9.518;2023-04-24T03:32:32;1.70;;;0.20;;
71116;SDS011;58775;46.992;9.518;2023-04-24T03:34:33;1.52;;;0.22;;
71116;SDS011;58775;46.992;9.518;2023-04-24T03:36:35;2.20;;;0.50;;
71116;SDS011;58775;46.992;9.518;2023-04-24T03:38:38;0.50;;;0.20;;
71116;SDS011;58775;46.992;9.518;2023-04-24T03:41:08;1.23;;;0.20;;
71116;SDS011;58775;46.992;9.518;2023-04-24T03:43:14;0.32;;;0.20;;
71116;SDS011;58775;46.992;9.518;2023-04-24T03:45:16;0.90;;;0.20;;
71116;SDS011;58775;46.992;9.518;2023-04-24T03:47:21;2.60;;;0.30;;
71116;SDS011;58775;46.992;9.518;2023-04-24T03:49:24;1.00;;;0.25;;
71116;SDS011;58775;46.992;9.518;2023-04-24T03:51:25;0.43;;;0.20;;
71116;SDS011;58775;46.992;9.518;2023-04-24T03:53:32;1.80;;;0.82;;
71116;SDS011;58775;46.992;9.518;2023-04-24T03:55:34;0.55;;;0.20;;
71116;SDS011;58775;46.992;9.518;2023-04-24T03:57:35;0.28;;;0.10;;
71116;SDS011;58775;46.992;9.518;2023-04-24T03:59:45;1.42;;;0.30;;
71116;SDS011;58775;46.992;9.518;2023-04-24T04:01:51;0.52;;;0.20;;
71116;SDS011;58775;46.992;9.518;2023-04-24T04:03:52;0.95;;;0.35;;
71116;SDS011;58775;46.992;9.518;2023-04-24T04:05:57;0.90;;;0.20;;
71116;SDS011;58775;46.992;9.518;2023-04-24T04:07:59;2.40;;;0.22;;
71116;SDS011;58775;46.992;9.518;2023-04-24T04:10:01;0.38;;;0.20;;
71116;SDS011;58775;46.992;9.518;2023-04-24T04:12:02;0.35;;;0.10;;
71116;SDS011;58775;46.992;9.518;2023-04-24T04:14:06;2.70;;;0.30;;
71116;SDS011;58775;46.992;9.518;2023-04-24T04:16:09;2.55;;;0.20;;
71116;SDS011;58775;46.992;9.518;2023-04-24T04:18:11;1.15;;;0.20;;
71116;SDS011;58775;46.992;9.518;2023-04-24T04:20:13;1.88;;;0.15;;
71116;SDS011;58775;46.992;9.518;2023-04-24T04:22:14;0.50;;;0.20;;
71116;SDS011;58775;46.992;9.518;2023-04-24T04:24:19;0.70;;;0.20;;
71116;SDS011;58775;46.992;9.518;2023-04-24T04:26:26;1.17;;;0.20;;
71116;SDS011;58775;46.992;9.518;2023-04-24T04:28:42;0.93;;;0.20;;
71116;SDS011;58775;46.992;9.518;2023-04-24T04:30:45;1.37;;;0.23;;
71116;SDS011;58775;46.992;9.518;2023-04-24T04:32:47;0.50;;;0.20;;
71116;SDS011;58775;46.992;9.518;2023-04-24T04:34:49;1.65;;;0.30;;
71116;SDS011;58775;46.992;9.518;2023-04-24T04:36:54;0.38;;;0.20;;
71116;SDS011;58775;46.992;9.518;2023-04-24T04:39:22;0.85;;;0.20;;
71116;SDS011;58775;46.992;9.518;2023-04-24T04:41:42;0.20;;;0.10;;
71116;SDS011;58775;46.992;9.518;2023-04-24T04:43:45;1.67;;;0.20;;
71116;SDS011;58775;46.992;9.518;2023-04-24T04:45:47;0.98;;;0.20;;
71116;SDS011;58775;46.992;9.518;2023-04-24T04:48:10;1.38;;;0.25;;
71116;SDS011;58775;46.992;9.518;2023-04-24T04:50:15;1.45;;;0.20;;
71116;SDS011;58775;46.992;9.518;2023-04-24T04:52:17;0.88;;;0.20;;
71116;SDS011;58775;46.992;9.518;2023-04-24T04:54:23;1.48;;;0.20;;
71116;SDS011;58775;46.992;9.518;2023-04-24T04:56:25;0.28;;;0.17;;
71116;SDS011;58775;46.992;9.518;2023-04-24T04:58:27;0.32;;;0.15;;
71116;SDS011;58775;46.992;9.518;2023-04-24T05:00:32;1.90;;;0.20;;
71116;SDS011;58775;46.992;9.518;2023-04-24T05:02:40;3.03;;;0.20;;
71116;SDS011;58775;46.992;9.518;2023-04-24T05:04:42;0.52;;;0.17;;
71116;SDS011;58775;46.992;9.518;2023-04-24T05:06:44;0.90;;;0.20;;
71116;SDS011;58775;46.992;9.518;2023-04-24T05:08:46;3.72;;;0.20;;
71116;SDS011;58775;46.992;9.518;2023-04-24T05:11:04;2.42;;;0.20;;
71116;SDS011;58775;46.992;9.518;2023-04-24T05:13:07;1.00;;;0.20;;
71116;SDS011;58775;46.992;9.518;2023-04-24T05:15:09;1.38;;;0.20;;
71116;SDS011;58775;46.992;9.518;2023-04-24T05:17:11;1.77;;;0.20;;
71116;SDS011;58775;46.992;9.518;2023-04-24T05:19:12;0.73;;;0.20;;
71116;SDS011;58775;46.992;9.518;2023-04-24T05:21:24;1.33;;;0.52;;
71116;SDS011;58775;46.992;9.518;2023-04-24T05:23:27;0.68;;;0.10;;
71116;SDS011;58775;46.992;9.518;2023-04-24T05:25:30;0.68;;;0.20;;
71116;SDS011;58775;46.992;9.518;2023-04-24T05:27:41;0.22;;;0.13;;
71116;SDS011;58775;46.992;9.518;2023-04-24T05:29:48;0.30;;;0.10;;
71116;SDS011;58775;46.992;9.518;2023-04-24T05:31:52;0.98;;;0.43;;
71116;SDS011;58775;46.992;9.518;2023-04-24T05:33:54;0.80;;;0.20;;
71116;SDS011;58775;46.992;9.518;2023-04-24T05:35:55;0.35;;;0.13;;
71116;SDS011;58775;46.992;9.518;2023-04-24T05:37:59;0.43;;;0.20;;
71116;SDS011;58775;46.992;9.518;2023-04-24T05:40:01;0.85;;;0.20;;
71116;SDS011;58775;46.992;9.518;2023-04-24T05:42:05;0.88;;;0.20;;
71116;SDS011;58775;46.992;9.518;2023-04-24T05:44:07;0.40;;;0.20;;
71116;SDS011;58775;46.992;9.518;2023-04-24T05:46:09;0.55;;;0.20;;
71116;SDS011;58775;46.992;9.518;2023-04-24T05:48:16;2.47;;;0.32;;
71116;SDS011;58775;46.992;9.518;2023-04-24T05:50:20;0.47;;;0.20;;
71116;SDS011;58775;46.992;9.518;2023-04-24T05:52:24;0.98;;;0.30;;
71116;SDS011;58775;46.992;9.518;2023-04-24T05:54:26;0.90;;;0.30;;
71116;SDS011;58775;46.992;9.518;2023-04-24T05:56:31;0.50;;;0.20;;
71116;SDS011;58775;46.992;9.518;2023-04-24T05:58:34;0.82;;;0.30;;
71116;SDS011;58775;46.992;9.518;2023-04-24T06:00:36;1.40;;;0.20;;
71116;SDS011;58775;46.992;9.518;2023-04-24T06:02:41;0.93;;;0.20;;
71116;SDS011;58775;46.992;9.518;2023-04-24T06:04:45;1.60;;;0.20;;
71116;SDS011;58775;46.992;9.518;2023-04-24T06:06:46;0.90;;;0.30;;
71116;SDS011;58775;46.992;9.518;2023-04-24T06:08:52;1.25;;;0.35;;
71116;SDS011;58775;46.992;9.518;2023-04-24T06:10:54;2.80;;;0.40;;
71116;SDS011;58775;46.992;9.518;2023-04-24T06:12:56;1.48;;;0.30;;
71116;SDS011;58775;46.992;9.518;2023-04-24T06:15:02;1.00;;;0.30;;
71116;SDS011;58775;46.992;9.518;2023-04-24T06:17:26;2.42;;;0.30;;
71116;SDS011;58775;46.992;9.518;2023-04-24T06:19:28;2.40;;;0.43;;
71116;SDS011;58775;46.992;9.518;2023-04-24T06:21:31;0.85;;;0.30;;
71116;SDS011;58775;46.992;9.518;2023-04-24T06:23:33;2.75;;;0.40;;
71116;SDS011;58775;46.992;9.518;2023-04-24T06:25:36;4.03;;;0.80;;
71116;SDS011;58775;46.992;9.518;2023-04-24T06:27:38;1.63;;;0.40;;
71116;SDS011;58775;46.992;9.518;2023-04-24T06:29:42;5.22;;;0.50;;
71116;SDS011;58775;46.992;9.518;2023-04-24T06:31:44;1.85;;;0.40;;
71116;SDS011;58775;46.992;9.518;2023-04-24T06:33:45;2.65;;;0.68;;
71116;SDS011;58775;46.992;9.518;2023-04-24T06:35:48;3.05;;;0.85;;
71116;SDS011;58775;46.992;9.518;2023-04-24T06:37:50;2.90;;;1.05;;
71116;SDS011;58775;46.992;9.518;2023-04-24T06:39:52;3.25;;;0.90;;
71116;SDS011;58775;46.992;9.518;2023-04-24T06:41:53;2.95;;;0.93;;
71116;SDS011;58775;46.992;9.518;2023-04-24T06:43:55;3.80;;;0.90;;
71116;SDS011;58775;46.992;9.518;2023-04-24T06:45:57;8.20;;;1.35;;
71116;SDS011;58775;46.992;9.518;2023-04-24T06:47:59;6.43;;;2.40;;
71116;SDS011;58775;46.992;9.518;2023-04-24T06:50:00;5.10;;;2.00;;
71116;SDS011;58775;46.992;9.518;2023-04-24T06:52:02;5.53;;;2.25;;
71116;SDS011;58775;46.992;9.518;2023-04-24T06:54:04;7.53;;;2.78;;
71116;SDS011;58775;46.992;9.518;2023-04-24T06:56:05;7.50;;;2.47;;
71116;SDS011;58775;46.992;9.518;2023-04-24T06:58:07;7.85;;;2.53;;
71116;SDS011;58775;46.992;9.518;2023-04-24T07:00:09;6.95;;;2.53;;
71116;SDS011;58775;46.992;9.518;2023-04-24T07:02:11;7.00;;;2.72;;
71116;SDS011;58775;46.992;9.518;2023-04-24T07:04:12;8.73;;;2.70;;
71116;SDS011;58775;46.992;9.518;2023-04-24T07:06:13;5.22;;;2.10;;
71116;SDS011;58775;46.992;9.518;2023-04-24T07:08:16;8.20;;;2.80;;
71116;SDS011;58775;46.992;9.518;2023-04-24T07:10:18;7.25;;;2.00;;
71116;SDS011;58775;46.992;9.518;2023-04-24T07:12:20;6.70;;;2.65;;
71116;SDS011;58775;46.992;9.518;2023-04-24T07:14:22;6.15;;;2.83;;
71116;SDS011;58775;46.992;9.518;2023-04-24T07:16:23;5.15;;;2.25;;
71116;SDS011;58775;46.992;9.518;2023-04-24T07:18:25;5.60;;;2.00;;
71116;SDS011;58775;46.992;9.518;2023-04-24T07:20:26;4.28;;;1.67;;
71116;SDS011;58775;46.992;9.518;2023-04-24T07:22:27;5.88;;;1.90;;
71116;SDS011;58775;46.992;9.518;2023-04-24T07:24:29;6.13;;;2.30;;
71116;SDS011;58775;46.992;9.518;2023-04-24T07:26:33;8.00;;;3.00;;
71116;SDS011;58775;46.992;9.518;2023-04-24T07:28:34;8.88;;;2.80;;
71116;SDS011;58775;46.992;9.518;2023-04-24T07:30:36;6.88;;;3.05;;
71116;SDS011;58775;46.992;9.518;2023-04-24T07:32:37;9.13;;;2.58;;
71116;SDS011;58775;46.992;9.518;2023-04-24T07:34:39;7.13;;;2.35;;
71116;SDS011;58775;46.992;9.518;2023-04-24T07:36:41;7.18;;;2.25;;
71116;SDS011;58775;46.992;9.518;2023-04-24T07:38:43;8.00;;;2.53;;
71116;SDS011;58775;46.992;9.518;2023-04-24T07:40:44;6.40;;;2.30;;
71116;SDS011;58775;46.992;9.518;2023-04-24T07:42:45;8.85;;;2.35;;
71116;SDS011;58775;46.992;9.518;2023-04-24T07:44:49;6.20;;;2.25;;
71116;SDS011;58775;46.992;9.518;2023-04-24T07:46:52;6.25;;;2.42;;
71116;SDS011;58775;46.992;9.518;2023-04-24T07:48:54;6.70;;;2.28;;
71116;SDS011;58775;46.992;9.518;2023-04-24T07:50:56;4.70;;;2.08;;
71116;SDS011;58775;46.992;9.518;2023-04-24T07:52:57;7.53;;;3.30;;
71116;SDS011;58775;46.992;9.518;2023-04-24T07:54:58;5.28;;;1.75;;
71116;SDS011;58775;46.992;9.518;2023-04-24T07:57:00;3.28;;;1.70;;
71116;SDS011;58775;46.992;9.518;2023-04-24T07:59:03;3.40;;;1.40;;
71116;SDS011;58775;46.992;9.518;2023-04-24T08:01:04;3.95;;;1.83;;
71116;SDS011;58775;46.992;9.518;2023-04-24T08:03:05;4.20;;;1.63;;
71116;SDS011;58775;46.992;9.518;2023-04-24T08:05:07;4.93;;;2.10;;
71116;SDS011;58775;46.992;9.518;2023-04-24T08:07:08;4.90;;;2.00;;
71116;SDS011;58775;46.992;9.518;2023-04-24T08:09:10;3.75;;;1.70;;
71116;SDS011;58775;46.992;9.518;2023-04-24T08:11:11;5.05;;;2.10;;
71116;SDS011;58775;46.992;9.518;2023-04-24T08:13:13;4.43;;;1.88;;
71116;SDS011;58775;46.992;9.518;2023-04-24T08:15:15;4.22;;;1.83;;
71116;SDS011;58775;46.992;9.518;2023-04-24T08:17:17;4.60;;;2.00;;
71116;SDS011;58775;46.992;9.518;2023-04-24T08:19:18;4.70;;;2.00;;
71116;SDS011;58775;46.992;9.518;2023-04-24T08:21:20;4.32;;;1.77;;
71116;SDS011;58775;46.992;9.518;2023-04-24T08:23:22;4.05;;;1.40;;
71116;SDS011;58775;46.992;9.518;2023-04-24T08:25:23;4.57;;;1.40;;
71116;SDS011;58775;46.992;9.518;2023-04-24T08:27:26;5.10;;;2.15;;
71116;SDS011;58775;46.992;9.518;2023-04-24T08:29:27;3.70;;;1.23;;
71116;SDS011;58775;46.992;9.518;2023-04-24T08:31:28;3.58;;;1.40;;
71116;SDS011;58775;46.992;9.518;2023-04-24T08:33:30;4.47;;;1.50;;
71116;SDS011;58775;46.992;9.518;2023-04-24T08:35:35;4.15;;;1.60;;
71116;SDS011;58775;46.992;9.518;2023-04-24T08:37:36;3.20;;;1.30;;
71116;SDS011;58775;46.992;9.518;2023-04-24T08:39:38;3.55;;;1.40;;
71116;SDS011;58775;46.992;9.518;2023-04-24T08:41:41;5.13;;;1.50;;
71116;SDS011;58775;46.992;9.518;2023-04-24T08:43:43;3.55;;;1.60;;
71116;SDS011;58775;46.992;9.518;2023-04-24T08:45:47;2.60;;;1.30;;
71116;SDS011;58775;46.992;9.518;2023-04-24T08:47:48;3.70;;;1.25;;
71116;SDS011;58775;46.992;9.518;2023-04-24T08:49:50;3.20;;;1.20;;
71116;SDS011;58775;46.992;9.518;2023-04-24T08:51:53;4.53;;;1.30;;
71116;SDS011;58775;46.992;9.518;2023-04-24T08:53:54;2.60;;;1.20;;
71116;SDS011;58775;46.992;9.518;2023-04-24T08:55:56;3.92;;;1.30;;
71116;SDS011;58775;46.992;9.518;2023-04-24T08:57:57;2.72;;;1.10;;
71116;SDS011;58775;46.992;9.518;2023-04-24T09:00:01;3.03;;;1.27;;
71116;SDS011;58775;46.992;9.518;2023-04-24T09:02:03;2.95;;;1.23;;
71116;SDS011;58775;46.992;9.518;2023-04-24T09:04:08;3.70;;;1.27;;
71116;SDS011;58775;46.992;9.518;2023-04-24T09:06:13;3.05;;;1.38;;
71116;SDS011;58775;46.992;9.518;2023-04-24T09:08:17;2.97;;;1.27;;
71116;SDS011;58775;46.992;9.518;2023-04-24T09:10:19;4.05;;;1.40;;
71116;SDS011;58775;46.992;9.518;2023-04-24T09:12:22;4.90;;;1.17;;
71116;SDS011;58775;46.992;9.518;2023-04-24T09:14:23;3.75;;;1.00;;
71116;SDS011;58775;46.992;9.518;2023-04-24T09:16:25;3.10;;;0.90;;
71116;SDS011;58775;46.992;9.518;2023-04-24T09:18:27;3.25;;;0.70;;
71116;SDS011;58775;46.992;9.518;2023-04-24T09:20:28;1.98;;;0.70;;
71116;SDS011;58775;46.992;9.518;2023-04-24T09:22:30;4.20;;;0.90;;
71116;SDS011;58775;46.992;9.518;2023-04-24T09:24:32;2.30;;;0.65;;
71116;SDS011;58775;46.992;9.518;2023-04-24T09:26:35;3.78;;;0.90;;
71116;SDS011;58775;46.992;9.518;2023-04-24T09:28:38;1.35;;;0.60;;
71116;SDS011;58775;46.992;9.518;2023-04-24T09:30:40;2.45;;;0.70;;
71116;SDS011;58775;46.992;9.518;2023-04-24T09:32:42;2.40;;;0.70;;
71116;SDS011;58775;46.992;9.518;2023-04-24T09:34:43;4.07;;;0.80;;
71116;SDS011;58775;46.992;9.518;2023-04-24T09:36:48;2.97;;;0.60;;
71116;SDS011;58775;46.992;9.518;2023-04-24T09:38:50;1.98;;;0.68;;
71116;SDS011;58775;46.992;9.518;2023-04-24T09:40:59;2.47;;;0.60;;
71116;SDS011;58775;46.992;9.518;2023-04-24T09:43:03;3.97;;;0.70;;
71116;SDS011;58775;46.992;9.518;2023-04-24T09:45:09;3.58;;;0.40;;
71116;SDS011;58775;46.992;9.518;2023-04-24T09:47:13;3.92;;;0.70;;
71116;SDS011;58775;46.992;9.518;2023-04-24T09:49:15;2.35;;;0.82;;
71116;SDS011;58775;46.992;9.518;2023-04-24T09:51:18;2.72;;;0.98;;
71116;SDS011;58775;46.992;9.518;2023-04-24T09:53:37;7.38;;;4.15;;
71116;SDS011;58775;46.992;9.518;2023-04-24T09:55:44;7.35;;;3.45;;
71116;SDS011;58775;46.992;9.518;2023-04-24T09:57:51;19.38;;;8.27;;
71116;SDS011;58775;46.992;9.518;2023-04-24T09:59:56;10.65;;;5.03;;
71116;SDS011;58775;46.992;9.518;2023-04-24T10:01:59;10.18;;;3.50;;
71116;SDS011;58775;46.992;9.518;2023-04-24T10:04:00;9.98;;;3.10;;
71116;SDS011;58775;46.992;9.518;2023-04-24T10:06:02;8.27;;;1.83;;
71116;SDS011;58775;46.992;9.518;2023-04-24T10:08:10;4.82;;;1.38;;
71116;SDS011;58775;46.992;9.518;2023-04-24T10:10:12;3.33;;;0.90;;
71116;SDS011;58775;46.992;9.518;2023-04-24T10:12:13;4.13;;;1.25;;
71116;SDS011;58775;46.992;9.518;2023-04-24T10:14:19;23.83;;;8.90;;
71116;SDS011;58775;46.992;9.518;2023-04-24T10:16:22;7.72;;;1.63;;
71116;SDS011;58775;46.992;9.518;2023-04-24T10:18:25;2.35;;;0.90;;
71116;SDS011;58775;46.992;9.518;2023-04-24T10:20:28;2.28;;;0.60;;
71116;SDS011;58775;46.992;9.518;2023-04-24T10:22:33;2.28;;;0.75;;
71116;SDS011;58775;46.992;9.518;2023-04-24T10:24:36;2.25;;;0.70;;
71116;SDS011;58775;46.992;9.518;2023-04-24T10:26:39;4.45;;;1.10;;
71116;SDS011;58775;46.992;9.518;2023-04-24T10:28:41;2.20;;;0.80;;
71116;SDS011;58775;46.992;9.518;2023-04-24T10:30:44;2.65;;;0.73;;
71116;SDS011;58775;46.992;9.518;2023-04-24T10:32:47;2.92;;;0.95;;
71116;SDS011;58775;46.992;9.518;2023-04-24T10:34:49;4.03;;;0.85;;
71116;SDS011;58775;46.992;9.518;2023-04-24T10:36:51;3.85;;;1.25;;
71116;SDS011;58775;46.992;9.518;2023-04-24T10:38:54;3.10;;;0.90;;
71116;SDS011;58775;46.992;9.518;2023-04-24T10:41:06;2.28;;;0.70;;
71116;SDS011;58775;46.992;9.518;2023-04-24T10:43:09;2.97;;;0.80;;
71116;SDS011;58775;46.992;9.518;2023-04-24T10:45:20;2.75;;;0.60;;
71116;SDS011;58775;46.992;9.518;2023-04-24T10:47:22;2.78;;;0.73;;
71116;SDS011;58775;46.992;9.518;2023-04-24T10:49:28;5.10;;;0.90;;
71116;SDS011;58775;46.992;9.518;2023-04-24T10:51:49;2.55;;;0.80;;
71116;SDS011;58775;46.992;9.518;2023-04-24T10:53:51;1.73;;;0.70;;
71116;SDS011;58775;46.992;9.518;2023-04-24T10:56:05;3.38;;;0.82;;
71116;SDS011;58775;46.992;9.518;2023-04-24T10:58:09;1.77;;;0.70;;
71116;SDS011;58775;46.992;9.518;2023-04-24T11:00:16;1.25;;;0.40;;
71116;SDS011;58775;46.992;9.518;2023-04-24T11:02:23;1.42;;;0.38;;
71116;SDS011;58775;46.992;9.518;2023-04-24T11:04:40;1.60;;;0.40;;
71116;SDS011;58775;46.992;9.518;2023-04-24T11:06:43;1.73;;;0.40;;
71116;SDS011;58775;46.992;9.518;2023-04-24T11:08:44;1.75;;;0.50;;
71116;SDS011;58775;46.992;9.518;2023-04-24T11:10:47;1.45;;;0.40;;
71116;SDS011;58775;46.992;9.518;2023-04-24T11:12:55;1.70;;;0.40;;
71116;SDS011;58775;46.992;9.518;2023-04-24T11:16:58;1.00;;;0.38;;
71116;SDS011;58775;46.992;9.518;2023-04-24T11:19:20;1.00;;;0.30;;
71116;SDS011;58775;46.992;9.518;2023-04-24T11:21:31;1.73;;;0.65;;
71116;SDS011;58775;46.992;9.518;2023-04-24T11:23:39;2.95;;;0.70;;
71116;SDS011;58775;46.992;9.518;2023-04-24T11:25:41;1.80;;;0.70;;
71116;SDS011;58775;46.992;9.518;2023-04-24T11:27:43;1.80;;;0.60;;
71116;SDS011;58775;46.992;9.518;2023-04-24T11:29:51;2.17;;;0.70;;
71116;SDS011;58775;46.992;9.518;2023-04-24T11:32:13;2.92;;;0.60;;
71116;SDS011;58775;46.992;9.518;2023-04-24T11:34:21;3.72;;;1.25;;
71116;SDS011;58775;46.992;9.518;2023-04-24T11:36:23;2.70;;;0.70;;
71116;SDS011;58775;46.992;9.518;2023-04-24T11:38:24;2.50;;;0.80;;
71116;SDS011;58775;46.992;9.518;2023-04-24T11:40:25;2.05;;;0.95;;
71116;SDS011;58775;46.992;9.518;2023-04-24T11:42:27;4.38;;;1.17;;
71116;SDS011;58775;46.992;9.518;2023-04-24T11:44:28;2.63;;;0.68;;
71116;SDS011;58775;46.992;9.518;2023-04-24T11:46:32;2.53;;;0.70;;
71116;SDS011;58775;46.992;9.518;2023-04-24T11:48:36;3.50;;;0.85;;
71116;SDS011;58775;46.992;9.518;2023-04-24T11:50:45;3.00;;;0.65;;
71116;SDS011;58775;46.992;9.518;2023-04-24T11:52:47;3.10;;;0.80;;
71116;SDS011;58775;46.992;9.518;2023-04-24T11:54:50;2.60;;;0.80;;
71116;SDS011;58775;46.992;9.518;2023-04-24T11:56:51;2.38;;;0.70;;
71116;SDS011;58775;46.992;9.518;2023-04-24T11:58:53;1.40;;;0.52;;
71116;SDS011;58775;46.992;9.518;2023-04-24T12:00:56;2.13;;;0.70;;
71116;SDS011;58775;46.992;9.518;2023-04-24T12:03:08;6.40;;;0.70;;
71116;SDS011;58775;46.992;9.518;2023-04-24T12:05:20;2.20;;;0.80;;
71116;SDS011;58775;46.992;9.518;2023-04-24T12:07:22;3.65;;;0.63;;
71116;SDS011;58775;46.992;9.518;2023-04-24T12:09:25;2.78;;;0.50;;
71116;SDS011;58775;46.992;9.518;2023-04-24T12:11:26;2.33;;;0.70;;
71116;SDS011;58775;46.992;9.518;2023-04-24T12:13:28;2.63;;;0.80;;
71116;SDS011;58775;46.992;9.518;2023-04-24T12:15:30;3.30;;;0.70;;
71116;SDS011;58775;46.992;9.518;2023-04-24T12:17:32;3.17;;;0.82;;
71116;SDS011;58775;46.992;9.518;2023-04-24T12:19:34;2.42;;;0.65;;
71116;SDS011;58775;46.992;9.518;2023-04-24T12:21:35;3.95;;;0.75;;
71116;SDS011;58775;46.992;9.518;2023-04-24T12:23:37;3.67;;;1.67;;
71116;SDS011;58775;46.992;9.518;2023-04-24T12:25:38;2.30;;;0.77;;